.
WxDataArchive / Data Records for 2010-08-24
2010-08-23 August 2010 2010-08-25

Data Records for Tuesday, 24 August 2010

Time	Temp	Chill	HIndex	Humid	Dewpt	 Wind 	HiWind	WindDir	Rain 	Barom 
-----	----	-----	------	-----	-----	------	------	-------	-----	----- 
00:00	66.9	66.9	66.9	85	62.2	0	0	---	0.00	30.033 
00:05	66.6	66.6	66.6	86	62.3	0	0	---	0.00	30.033 
00:10	66.4	66.4	66.4	86	62.1	0	1	180	0.00	30.033 
00:15	66.3	66.3	66.3	87	62.3	0	0	---	0.00	30.032 
00:20	66.1	66.1	66.1	87	62.1	0	0	---	0.00	30.032 
00:25	66.0	66.0	66.0	87	62.0	0	0	---	0.00	30.032 
00:30	66.0	66.0	66.0	88	62.3	0	1	180	0.00	30.033 
00:35	65.8	65.8	65.8	88	62.1	0	1	180	0.00	30.033 
00:40	65.8	65.8	65.8	88	62.1	0	1	180	0.00	30.033 
00:45	65.8	65.8	65.8	89	62.5	0	0	---	0.00	30.034 
00:50	66.0	66.0	66.0	89	62.7	0	2	180	0.00	30.034 
00:55	66.0	66.0	66.0	88	62.3	0	2	158	0.00	30.034 
01:00	66.0	66.0	66.0	88	62.3	0	2	158	0.00	30.035 
01:05	65.8	65.8	65.8	88	62.1	0	0	---	0.00	30.035 
01:10	65.8	65.8	65.8	89	62.5	0	1	158	0.00	30.035 
01:15	65.8	65.8	65.8	89	62.5	0	1	158	0.00	30.033 
01:20	65.6	65.6	65.6	89	62.3	0	0	---	0.00	30.033 
01:25	65.5	65.5	65.5	89	62.2	0	0	---	0.00	30.033 
01:30	65.3	65.3	65.3	89	62.0	0	1	158	0.00	30.033 
01:35	65.3	65.3	65.3	89	62.0	0	0	---	0.00	30.033 
01:40	65.2	65.2	65.2	89	61.9	0	0	---	0.00	30.033 
01:45	65.0	65.0	65.0	90	62.0	0	0	---	0.00	30.032 
01:50	64.8	64.8	64.8	90	61.8	0	0	---	0.00	30.032 
01:55	64.7	64.7	64.7	90	61.7	0	0	---	0.00	30.032 
02:00	64.7	64.7	64.7	90	61.7	0	0	---	0.00	30.024 
02:05	64.5	64.5	64.5	90	61.5	0	0	---	0.00	30.024 
02:10	64.5	64.5	64.5	91	61.8	0	0	---	0.00	30.024 
02:15	64.3	64.3	64.3	91	61.6	0	0	---	0.00	30.017 
02:20	64.2	64.2	64.2	91	61.5	0	0	---	0.00	30.017 
02:25	64.2	64.2	64.2	91	61.5	0	0	---	0.00	30.017 
02:30	64.2	64.2	64.2	92	61.8	0	0	---	0.00	30.017 
02:35	64.0	64.0	64.0	92	61.6	0	0	---	0.00	30.017 
02:40	63.9	63.9	63.9	92	61.5	0	0	---	0.00	30.017 
02:45	63.9	63.9	63.9	92	61.5	0	0	---	0.00	30.016 
02:50	63.7	63.7	63.7	92	61.3	0	0	---	0.00	30.016 
02:55	63.7	63.7	63.7	92	61.3	0	0	---	0.00	30.016 
03:00	63.5	63.5	63.5	92	61.1	0	0	---	0.00	30.016 
03:05	63.5	63.5	63.5	92	61.1	0	0	---	0.00	30.016 
03:10	63.5	63.5	63.5	93	61.4	0	1	158	0.00	30.016 
03:15	63.5	63.5	63.5	93	61.4	0	0	---	0.00	30.015 
03:20	63.7	63.7	63.7	93	61.6	0	1	158	0.00	30.015 
03:25	63.9	63.9	63.9	93	61.8	0	2	158	0.00	30.015 
03:30	64.2	64.2	64.2	93	62.1	0	1	158	0.00	30.013 
03:35	64.3	64.3	64.3	94	62.5	0	2	158	0.00	30.013 
03:40	64.5	64.5	64.5	93	62.4	0	2	158	0.00	30.013 
03:45	64.7	64.7	64.7	93	62.6	0	1	158	0.00	30.014 
03:50	64.8	64.8	64.8	93	62.7	0	1	158	0.00	30.014 
03:55	65.0	65.0	65.0	93	62.9	0	0	---	0.00	30.014 
04:00	65.2	65.2	65.2	93	63.1	0	1	158	0.00	30.015 
04:05	65.2	65.2	65.2	93	63.1	0	1	158	0.00	30.015 
04:10	65.3	65.3	65.3	93	63.2	0	2	135	0.00	30.015 
04:15	65.5	65.5	65.5	93	63.4	1	4	112	0.00	30.013 
04:20	65.6	65.6	65.6	93	63.5	1	3	112	0.00	30.013 
04:25	65.8	65.8	65.8	92	63.4	1	3	112	0.00	30.013 
04:30	65.8	65.8	65.8	92	63.4	1	2	112	0.00	30.013 
04:35	65.8	65.8	65.8	92	63.4	0	2	112	0.00	30.013 
04:40	66.0	66.0	66.0	92	63.6	0	2	112	0.00	30.013 
04:45	66.0	66.0	66.0	92	63.6	0	2	112	0.00	30.013 
04:50	66.0	66.0	66.0	92	63.6	0	2	112	0.00	30.013 
04:55	66.1	66.1	66.1	92	63.7	0	2	112	0.00	30.013 
05:00	66.1	66.1	66.1	93	64.0	0	2	112	0.00	30.008 
05:05	66.1	66.1	66.1	93	64.0	1	2	112	0.00	30.008 
05:10	66.1	66.1	66.1	93	64.0	1	2	112	0.00	30.008 
05:15	66.3	66.3	66.3	93	64.2	0	1	112	0.00	30.005 
05:20	66.3	66.3	66.3	93	64.2	0	1	112	0.00	30.005 
05:25	66.3	66.3	66.3	93	64.2	0	0	---	0.00	30.005 
05:30	66.3	66.3	66.3	93	64.2	0	0	---	0.00	30.001 
05:35	66.3	66.3	66.3	93	64.2	0	1	112	0.00	30.001 
05:40	66.3	66.3	66.3	93	64.2	0	0	---	0.00	30.001 
05:45	66.4	66.4	66.4	93	64.3	0	0	---	0.00	29.998 
05:50	66.4	66.4	66.4	93	64.3	0	0	---	0.00	29.998 
05:55	66.4	66.4	66.4	93	64.3	0	1	112	0.00	29.998 
06:00	66.6	66.6	66.6	93	64.5	0	1	112	0.00	29.999 
06:05	66.6	66.6	66.6	93	64.5	0	0	---	0.00	29.999 
06:10	66.6	66.6	66.6	93	64.5	0	0	---	0.00	29.999 
06:15	66.6	66.6	66.6	93	64.5	0	1	112	0.00	30.001 
06:20	66.6	66.6	66.6	92	64.2	0	1	112	0.00	30.001 
06:25	66.6	66.6	66.6	92	64.2	0	1	112	0.00	30.001 
06:30	66.6	66.6	66.6	92	64.2	0	0	---	0.00	30.003 
06:35	66.6	66.6	66.6	92	64.2	0	1	112	0.00	30.003 
06:40	66.6	66.6	66.6	92	64.2	0	2	112	0.00	30.003 
06:45	66.6	66.6	66.6	92	64.2	0	1	112	0.00	30.006 
06:50	66.6	66.6	66.6	92	64.2	0	1	112	0.00	30.006 
06:55	66.6	66.6	66.6	92	64.2	0	1	112	0.00	30.006 
07:00	66.4	66.4	66.4	92	64.0	0	0	---	0.00	30.010 
07:05	66.4	66.4	66.4	92	64.0	0	0	---	0.00	30.010 
07:10	66.3	66.3	66.3	92	63.9	0	0	---	0.00	30.010 
07:15	66.0	66.0	66.0	92	63.6	0	0	---	0.00	30.017 
07:20	66.0	66.0	66.0	92	63.6	0	0	---	0.00	30.017 
07:25	65.8	65.8	65.8	92	63.4	0	0	---	0.00	30.017 
07:30	66.0	66.0	66.0	93	63.9	0	0	---	0.00	30.023 
07:35	66.0	66.0	66.0	93	63.9	0	0	---	0.00	30.023 
07:40	66.0	66.0	66.0	93	63.9	0	0	---	0.00	30.023 
07:45	66.0	66.0	66.0	93	63.9	0	3	112	0.00	30.031 
07:50	66.0	66.0	66.0	93	63.9	0	4	112	0.00	30.031 
07:55	66.0	66.0	66.0	93	63.9	0	3	112	0.00	30.031 
08:00	66.0	66.0	66.0	93	63.9	0	3	112	0.00	30.033 
08:05	66.0	66.0	66.0	93	63.9	1	3	112	0.00	30.033 
08:10	66.1	66.1	66.1	92	63.7	1	4	90	0.00	30.033 
08:15	66.3	66.3	66.3	92	63.9	1	4	112	0.00	30.036 
08:20	66.8	66.8	66.8	91	64.1	1	3	112	0.00	30.036 
08:25	67.1	67.1	67.1	90	64.1	1	4	112	0.00	30.036 
08:30	67.4	67.4	67.4	88	63.7	2	4	112	0.00	30.040 
08:35	67.8	67.8	67.8	88	64.1	1	5	112	0.00	30.040 
08:40	67.9	67.9	67.9	87	63.9	2	7	90	0.00	30.040 
08:45	67.9	67.9	67.9	87	63.9	3	9	90	0.00	30.037 
08:50	67.9	67.9	67.9	87	63.9	3	7	90	0.00	30.037 
08:55	67.9	67.9	67.9	87	63.9	3	5	90	0.00	30.037 
09:00	68.1	68.1	68.1	86	63.7	3	6	112	0.00	30.035 
09:05	68.3	68.3	68.3	86	63.9	3	5	90	0.00	30.035 
09:10	68.4	68.4	68.4	86	64.0	2	6	90	0.00	30.035 
09:15	68.8	68.8	68.8	86	64.4	1	3	90	0.00	30.034 
09:20	69.1	69.1	69.1	85	64.4	2	5	90	0.00	30.034 
09:25	69.4	69.4	69.4	84	64.3	1	4	68	0.00	30.034 
09:30	69.8	69.8	69.8	84	64.7	2	6	90	0.00	30.032 
09:35	70.3	70.3	70.3	83	64.9	1	4	90	0.00	30.032 
09:40	70.6	70.6	70.6	81	64.5	2	5	90	0.00	30.032 
09:45	70.9	70.9	70.9	81	64.8	2	4	112	0.00	30.036 
09:50	70.9	70.9	70.9	81	64.8	2	5	90	0.00	30.036 
09:55	71.3	71.3	71.3	80	64.8	1	4	90	0.00	30.036 
10:00	71.6	71.6	71.6	80	65.1	2	4	68	0.00	30.031 
10:05	71.8	71.8	71.8	79	64.9	2	6	135	0.00	30.031 
10:10	71.8	71.8	71.8	78	64.6	2	5	112	0.00	30.031 
10:15	72.0	72.0	72.0	78	64.8	2	5	112	0.00	30.034 
10:20	72.1	72.1	72.1	79	65.2	2	4	112	0.00	30.034 
10:25	72.8	72.8	72.8	77	65.2	1	3	90	0.00	30.034 
10:30	73.5	73.5	73.5	74	64.7	1	7	90	0.00	30.033 
10:35	74.0	74.0	74.0	72	64.4	2	4	90	0.00	30.033 
10:40	73.7	73.7	73.7	74	64.9	2	5	90	0.00	30.033 
10:45	73.2	73.2	73.2	75	64.8	1	5	90	0.00	30.031 
10:50	73.3	73.3	73.3	74	64.5	2	6	90	0.00	30.031 
10:55	73.9	73.9	73.9	71	63.9	2	4	90	0.00	30.031 
11:00	74.6	74.6	74.6	71	64.6	1	3	90	0.00	30.034 
11:05	74.2	74.2	74.2	69	63.4	3	6	90	0.00	30.034 
11:10	74.4	74.4	74.4	70	64.0	2	5	90	0.00	30.034 
11:15	74.9	74.9	74.9	69	64.0	2	4	90	0.00	30.032 
11:20	75.1	75.1	76.9	68	63.8	2	5	68	0.00	30.032 
11:25	74.9	74.9	74.9	69	64.0	1	4	90	0.00	30.032 
11:30	74.9	74.9	74.9	68	63.6	2	4	90	0.00	30.035 
11:35	75.4	75.4	77.2	68	64.1	2	4	90	0.00	30.035 
11:40	76.1	76.1	77.9	67	64.3	2	5	90	0.00	30.035 
11:45	76.7	76.7	78.5	66	64.5	3	9	90	0.00	30.030 
11:50	76.3	76.3	78.1	66	64.1	2	5	90	0.00	30.030 
11:55	76.0	76.0	77.8	67	64.2	1	4	90	0.00	30.030 
12:00	76.0	76.0	77.8	66	63.8	1	5	90	0.00	30.031 
12:05	76.3	76.3	78.2	64	63.2	2	5	90	0.00	30.031 
12:10	76.7	76.7	78.5	65	64.0	1	3	112	0.00	30.031 
12:15	77.2	77.2	79.0	64	64.1	1	4	112	0.00	30.033 
12:20	77.2	77.2	79.0	62	63.2	0	2	202	0.00	30.033 
12:25	77.6	77.6	79.4	62	63.5	1	3	112	0.00	30.033 
12:30	78.5	78.5	80.2	60	63.4	1	3	112	0.00	30.025 
12:35	79.2	79.2	80.7	58	63.1	3	7	112	0.00	30.025 
12:40	78.8	78.8	80.3	58	62.8	2	5	112	0.00	30.025 
12:45	78.6	78.6	80.3	60	63.5	1	3	90	0.00	30.025 
12:50	79.2	79.2	80.8	59	63.6	1	3	112	0.00	30.025 
12:55	78.8	78.8	80.3	58	62.8	0	2	112	0.00	30.025 
13:00	78.1	78.1	79.7	59	62.6	1	4	112	0.00	30.027 
13:05	77.6	77.6	79.3	61	63.1	0	3	112	0.00	30.027 
13:10	77.2	77.2	79.0	62	63.2	0	2	112	0.00	30.027 
13:15	77.0	77.0	78.8	62	63.0	0	2	112	0.00	30.017 
13:20	76.8	76.8	78.6	62	62.8	1	2	112	0.00	30.017 
13:25	76.7	76.7	78.5	61	62.2	0	1	112	0.00	30.017 
13:30	76.7	76.7	78.5	61	62.2	0	1	112	0.00	30.019 
13:35	76.8	76.8	78.6	62	62.8	1	2	112	0.00	30.019 
13:40	77.0	77.0	78.8	62	63.0	1	3	112	0.00	30.019 
13:45	77.0	77.0	78.8	61	62.5	1	2	112	0.00	30.015 
13:50	77.0	77.0	78.8	61	62.5	1	2	112	0.00	30.015 
13:55	77.2	77.2	79.0	61	62.7	0	3	112	0.00	30.015 
14:00	77.4	77.4	79.1	60	62.4	0	3	112	0.00	30.006 
14:05	77.6	77.6	79.3	60	62.6	0	2	112	0.00	30.006 
14:10	77.7	77.7	79.4	60	62.7	0	1	112	0.00	30.006 
14:15	77.9	77.9	79.5	59	62.4	0	3	112	0.00	30.003 
14:20	77.9	77.9	79.5	58	61.9	0	2	112	0.00	30.003 
14:25	78.1	78.1	79.7	59	62.6	0	1	112	0.00	30.003 
14:30	78.5	78.5	80.1	59	63.0	0	3	112	0.00	30.000 
14:35	78.6	78.6	80.1	58	62.6	1	4	112	0.00	30.000 
14:40	78.6	78.6	80.1	58	62.6	1	3	112	0.00	30.000 
14:45	78.6	78.6	80.1	57	62.1	1	4	112	0.00	29.989 
14:50	78.6	78.6	80.1	57	62.1	1	6	112	0.00	29.989 
14:55	78.5	78.5	80.0	58	62.5	1	4	90	0.00	29.989 
15:00	78.3	78.3	79.8	57	61.8	2	4	112	0.00	29.986 
15:05	78.3	78.3	79.9	58	62.3	0	2	112	0.00	29.986 
15:10	78.5	78.5	80.0	57	62.0	2	5	112	0.00	29.986 
15:15	78.6	78.6	80.1	57	62.1	1	5	112	0.00	29.983 
15:20	78.6	78.6	80.1	57	62.1	2	7	112	0.00	29.983 
15:25	78.8	78.8	80.3	57	62.3	2	5	90	0.00	29.983 
15:30	78.8	78.8	80.1	54	60.7	3	7	90	0.00	29.980 
15:35	79.0	79.0	80.2	53	60.4	3	7	90	0.00	29.980 
15:40	79.0	79.0	80.3	54	60.9	2	7	112	0.00	29.980 
15:45	79.0	79.0	80.4	56	61.9	1	4	90	0.00	29.975 
15:50	79.0	79.0	80.3	55	61.4	2	4	90	0.00	29.975 
15:55	79.2	79.2	80.5	55	61.6	0	2	90	0.00	29.975 
16:00	79.4	79.4	80.8	56	62.3	1	3	112	0.00	29.968 
16:05	79.6	79.6	80.9	55	62.0	0	3	112	0.00	29.968 
16:10	79.6	79.6	80.7	53	60.9	1	3	135	0.00	29.968 
16:15	79.6	79.6	81.0	56	62.5	1	2	135	0.00	29.966 
16:20	79.9	79.9	81.1	54	61.7	0	4	90	0.00	29.966 
16:25	80.1	80.1	81.3	54	61.9	0	1	90	0.00	29.966 
16:30	80.1	80.1	81.3	54	61.9	0	3	90	0.00	29.965 
16:35	79.9	79.9	81.1	54	61.7	0	1	112	0.00	29.965 
16:40	79.8	79.8	81.0	54	61.7	1	3	180	0.00	29.965 
16:45	79.6	79.6	80.8	54	61.5	1	3	270	0.00	29.964 
16:50	79.6	79.6	80.9	55	62.0	1	2	45	0.00	29.964 
16:55	79.6	79.6	80.9	55	62.0	0	1	45	0.00	29.964 
17:00	79.6	79.6	80.9	55	62.0	0	1	45	0.00	29.966 
17:05	79.4	79.4	80.8	56	62.3	0	1	45	0.00	29.966 
17:10	79.0	79.0	80.4	56	61.9	0	1	45	0.00	29.966 
17:15	79.0	79.0	80.4	56	61.9	0	1	45	0.00	29.967 
17:20	78.8	78.8	80.2	56	61.8	0	1	45	0.00	29.967 
17:25	78.6	78.6	80.1	57	62.1	0	1	45	0.00	29.967 
17:30	78.6	78.6	80.1	57	62.1	0	2	0	0.00	29.969 
17:35	78.5	78.5	79.9	56	61.5	0	1	0	0.00	29.969 
17:40	78.5	78.5	79.9	56	61.5	0	1	0	0.00	29.969 
17:45	78.3	78.3	79.8	57	61.8	0	1	0	0.00	29.968 
17:50	78.3	78.3	79.8	57	61.8	0	1	0	0.00	29.968 
17:55	78.5	78.5	80.0	57	62.0	0	0	---	0.00	29.968 
18:00	78.5	78.5	80.0	57	62.0	0	2	0	0.00	29.965 
18:05	78.5	78.5	80.0	58	62.5	0	1	0	0.00	29.965 
18:10	78.5	78.5	80.0	58	62.5	0	1	225	0.00	29.965 
18:15	78.5	78.5	80.1	59	63.0	0	1	225	0.00	29.965 
18:20	78.3	78.3	79.9	59	62.8	0	0	---	0.00	29.965 
18:25	78.1	78.1	79.7	59	62.6	0	1	225	0.00	29.965 
18:30	77.9	77.9	79.5	59	62.4	0	2	225	0.00	29.965 
18:35	77.7	77.7	79.4	59	62.2	0	1	225	0.00	29.965 
18:40	77.4	77.4	79.1	60	62.4	0	1	225	0.00	29.965 
18:45	77.4	77.4	79.1	60	62.4	0	1	225	0.00	29.969 
18:50	77.2	77.2	78.9	60	62.2	0	0	---	0.00	29.969 
18:55	77.0	77.0	78.8	61	62.5	0	1	225	0.00	29.969 
19:00	77.0	77.0	78.8	61	62.5	0	1	225	0.00	29.966 
19:05	77.0	77.0	78.8	60	62.0	0	0	---	0.00	29.966 
19:10	77.0	77.0	78.8	61	62.5	0	1	225	0.00	29.966 
19:15	77.0	77.0	78.8	61	62.5	0	0	---	0.00	29.967 
19:20	76.8	76.8	78.6	61	62.3	0	0	---	0.00	29.967 
19:25	76.7	76.7	78.5	61	62.2	0	0	---	0.00	29.967 
19:30	76.7	76.7	78.5	62	62.7	0	0	---	0.00	29.965 
19:35	76.5	76.5	78.4	62	62.5	0	1	225	0.00	29.965 
19:40	76.3	76.3	78.2	63	62.8	0	0	---	0.00	29.965 
19:45	76.1	76.1	78.0	63	62.6	0	0	---	0.00	29.964 
19:50	76.0	76.0	77.9	63	62.5	0	0	---	0.00	29.964 
19:55	76.0	76.0	77.9	64	62.9	0	0	---	0.00	29.964 
20:00	75.8	75.8	77.7	64	62.7	0	0	---	0.00	29.965 
20:05	75.6	75.6	77.5	65	63.0	0	0	---	0.00	29.965 
20:10	75.6	75.6	77.5	65	63.0	0	0	---	0.00	29.965 
20:15	75.4	75.4	77.4	65	62.8	0	0	---	0.00	29.962 
20:20	75.3	75.3	77.2	66	63.1	0	0	---	0.00	29.962 
20:25	75.1	75.1	77.1	66	62.9	0	0	---	0.00	29.962 
20:30	74.9	74.9	74.9	67	63.2	0	0	---	0.00	29.966 
20:35	74.9	74.9	74.9	67	63.2	0	0	---	0.00	29.966 
20:40	74.7	74.7	74.7	68	63.4	0	0	---	0.00	29.966 
20:45	74.6	74.6	74.6	68	63.3	0	0	---	0.00	29.966 
20:50	74.6	74.6	74.6	68	63.3	0	0	---	0.00	29.966 
20:55	74.4	74.4	74.4	69	63.5	0	0	---	0.00	29.966 
21:00	74.4	74.4	74.4	69	63.5	0	0	---	0.00	29.969 
21:05	74.2	74.2	74.2	69	63.4	0	0	---	0.00	29.969 
21:10	74.0	74.0	74.0	69	63.2	0	0	---	0.00	29.969 
21:15	74.0	74.0	74.0	69	63.2	0	0	---	0.00	29.969 
21:20	73.9	73.9	73.9	70	63.5	0	0	---	0.00	29.969 
21:25	73.9	73.9	73.9	70	63.5	0	0	---	0.00	29.969 
21:30	73.9	73.9	73.9	71	63.9	0	0	---	0.00	29.977 
21:35	73.7	73.7	73.7	71	63.7	0	0	---	0.00	29.977 
21:40	73.7	73.7	73.7	71	63.7	0	0	---	0.00	29.977 
21:45	73.5	73.5	73.5	71	63.5	0	0	---	0.00	29.981 
21:50	73.5	73.5	73.5	72	63.9	0	0	---	0.00	29.981 
21:55	73.3	73.3	73.3	72	63.7	0	0	---	0.00	29.981 
22:00	73.3	73.3	73.3	73	64.1	0	0	---	0.00	29.981 
22:05	73.3	73.3	73.3	72	63.7	0	3	180	0.00	29.981 
22:10	73.3	73.3	73.3	72	63.7	0	2	158	0.00	29.981 
22:15	73.3	73.3	73.3	73	64.1	0	4	112	0.00	29.978 
22:20	73.3	73.3	73.3	73	64.1	0	1	112	0.00	29.978 
22:25	73.3	73.3	73.3	74	64.5	0	2	112	0.00	29.978 
22:30	73.2	73.2	73.2	75	64.8	0	1	112	0.00	29.977 
22:35	73.2	73.2	73.2	76	65.2	0	2	112	0.00	29.977 
22:40	73.0	73.0	73.0	77	65.3	0	1	112	0.00	29.977 
22:45	72.7	72.7	72.7	78	65.4	0	1	112	0.00	29.975 
22:50	72.5	72.5	72.5	79	65.6	0	1	112	0.00	29.975 
22:55	72.1	72.1	72.1	80	65.6	0	1	112	0.00	29.975 
23:00	71.8	71.8	71.8	80	65.3	0	0	---	0.00	29.976 
23:05	71.6	71.6	71.6	81	65.4	0	1	112	0.00	29.976 
23:10	71.3	71.3	71.3	82	65.5	0	1	112	0.00	29.976 
23:15	71.1	71.1	71.1	82	65.3	0	0	---	0.00	29.975 
23:20	70.8	70.8	70.8	83	65.4	0	0	---	0.00	29.975 
23:25	70.4	70.4	70.4	83	65.0	0	0	---	0.00	29.975 
23:30	70.1	70.1	70.1	84	65.0	0	0	---	0.00	29.977 
23:35	69.8	69.8	69.8	84	64.7	0	0	---	0.00	29.977 
23:40	69.4	69.4	69.4	85	64.7	0	0	---	0.00	29.977 
23:45	69.3	69.3	69.3	86	64.9	0	0	---	0.00	29.979 
23:50	68.9	68.9	68.9	86	64.5	0	0	---	0.00	29.979 
23:55	68.8	68.8	68.8	87	64.8	0	0	---	0.00	29.979 

CoCoRaHS
IN-AL-39
A2 Web Hosting
Creative Commons License
GoDaddy
search engine by freefind advanced

loaded 2018-11-20 06:43:20 • last modified 2010-11-18 10:43:29
Privacy PolicyDisclaimer
• wx.awcolley.com is powered by PmWiki v.2002016 •
• all content (unless otherwise noted) © 2018 A W Colley